Погода Гурчна 2 недели

Поморское воеводство, Польша

15 - 28 июля
  • 15июля
    Сегодня
    +18°
    +26°
    Ясно и безоблачно
    ВремяПогодаТемператураВлажностьДавлениеВетер, м/сВероятность осадков
    02:00Облачно с прояснениями+17°C85 %756 мм1.3 м/с1 %
    05:00Ясно и безоблачно+17°C90 %756 мм0.2 м/с2 %
    08:00Ясно и безоблачно+19°C82 %757 мм0.2 м/с2 %
    11:00Ясно и безоблачно+23°C63 %756 мм0.7 м/с2 %
    14:00Ясно и безоблачно+25°C50 %756 мм1.1 м/с2 %
    17:00Ясно и безоблачно+26°C50 %756 мм1.3 м/с1 %
    20:00Небольшая облачность+24°C70 %756 мм1.1 м/с2 %
    23:00Ясно и безоблачно+20°C75 %756 мм2.4 м/с2 %
  • 16июля
    Вторник
    +17°
    +31°
    Практически безоблачно
    ВремяПогодаТемператураВлажностьДавлениеВетер, м/сВероятность осадков
    02:00Ясно и безоблачно+19°C76 %755 мм3.3 м/с2 %
    05:00Ясно и безоблачно+18°C80 %755 мм3.5 м/с2 %
    08:00Ясно и безоблачно+23°C73 %755 мм4.0 м/с2 %
    11:00Облачно с прояснениями+27°C62 %754 мм4.2 м/с1 %
    14:00Практически безоблачно+30°C51 %753 мм4.8 м/с5 %
    17:00Облачно с прояснениями, ливень+25°C77 %752 мм5.2 м/с64 %
    20:00Небольшая облачность, возможен дождь с грозой+22°C90 %752 мм0.7 м/с75 %
    23:00Небольшая облачность+20°C95 %753 мм2.5 м/с45 %
  • 17июля
    Среда
    +14°
    +25°
    Ясно и безоблачно
    ВремяПогодаТемператураВлажностьДавлениеВетер, м/сВероятность осадков
    02:00Ясно и безоблачно+18°C95 %754 мм3.6 м/с13 %
    05:00Ясно и безоблачно+18°C94 %755 мм3.2 м/с2 %
    08:00Ясно и безоблачно+20°C85 %756 мм3.1 м/с2 %
    11:00Практически безоблачно+23°C53 %757 мм5.3 м/с13 %
    14:00Ясно и безоблачно+25°C49 %758 мм5.9 м/с6 %
    17:00Облачно с прояснениями+24°C47 %758 мм5.7 м/с6 %
    20:00Небольшая облачность+20°C61 %759 мм3.0 м/с4 %
    23:00Ясно и безоблачно+18°C77 %760 мм2.0 м/с4 %
  • 18июля
    Четверг
    +13°
    +24°
    Практически безоблачно
    ВремяПогодаТемператураВлажностьДавлениеВетер, м/сВероятность осадков
    02:00Ясно и безоблачно+16°C88 %760 мм1.8 м/с2 %
    05:00Ясно и безоблачно+15°C94 %760 мм1.7 м/с2 %
    08:00Ясно и безоблачно+18°C76 %761 мм2.4 м/с2 %
    11:00Ясно и безоблачно+21°C58 %761 мм3.9 м/с11 %
    14:00Практически безоблачно+24°C51 %761 мм3.8 м/с23 %
    17:00Облачно с прояснениями+24°C51 %760 мм3.5 м/с9 %
    20:00Облачно с прояснениями+21°C67 %760 мм1.8 м/с2 %
    23:00Облачно с прояснениями+16°C88 %761 мм1.7 м/с2 %
  • 19июля
    Пятница
    +13°
    +24°
    Практически безоблачно
    ВремяПогодаТемператураВлажностьДавлениеВетер, м/сВероятность осадков
    02:00Ясно и безоблачно+15°C93 %761 мм1.4 м/с2 %
    05:00Ясно и безоблачно+14°C95 %761 мм1.7 м/с2 %
    08:00Ясно и безоблачно+17°C74 %761 мм2.2 м/с2 %
    11:00Практически безоблачно+21°C55 %761 мм2.8 м/с4 %
    14:00Практически безоблачно+23°C48 %760 мм2.8 м/с11 %
    17:00Небольшая облачность+23°C43 %759 мм2.8 м/с12 %
    20:00Ясно и безоблачно+20°C66 %758 мм3.4 м/с6 %
    23:00Ясно и безоблачно+16°C81 %758 мм1.9 м/с2 %
Мы используем cookies
Соглашаюсь